Time;durP1;ratioP1;P1;durP2;ratioP2;P2;SDS_P1;SDS_P2;PMS_P1;PMS_P2;Temp;Humidity;BMP_temperature;BMP_pressure;BME280_temperature;BME280_humidity;BME280_pressure;Samples;Min_cycle;Max_cycle;Signal;HPM_P1;HPM_P2
2022/10/18 00:02:04;;;;;;;16.67;9.00;;;;;;;4.89;100.00;100906.44;1599014;89;20915;-76
2022/10/18 00:04:31;;;;;;;18.07;8.60;;;;;;;4.85;100.00;100906.64;1598697;89;21031;-74
2022/10/18 00:06:57;;;;;;;19.00;10.05;;;;;;;4.82;100.00;100905.23;1598977;89;20915;-74
2022/10/18 00:09:26;;;;;;;20.02;10.30;;;;;;;4.74;100.00;100907.52;1598780;89;21129;-74
2022/10/18 00:11:54;;;;;;;21.80;9.38;;;;;;;4.72;100.00;100899.60;1598736;89;21014;-74
2022/10/18 00:14:21;;;;;;;20.32;10.23;;;;;;;4.72;100.00;100899.60;1598905;89;21014;-74
2022/10/18 00:16:49;;;;;;;19.23;10.50;;;;;;;4.72;100.00;100901.50;1598736;89;21034;-74
2022/10/18 00:19:16;;;;;;;18.10;9.48;;;;;;;4.68;100.00;100898.97;1598711;89;20975;-74
2022/10/18 00:21:42;;;;;;;23.05;11.18;;;;;;;4.64;100.00;100890.47;1598977;89;21333;-75
2022/10/18 00:24:09;;;;;;;21.80;10.18;;;;;;;4.61;100.00;100890.99;1598700;89;20915;-74
2022/10/18 00:26:35;;;;;;;21.82;11.55;;;;;;;4.58;100.00;100891.48;1598763;89;20971;-74
2022/10/18 00:29:04;;;;;;;22.20;11.38;;;;;;;4.55;100.00;100884.63;1598724;89;20959;-73
2022/10/18 00:31:35;;;;;;;20.02;10.93;;;;;;;4.49;100.00;100884.24;1598711;89;20943;-74
2022/10/18 00:34:07;;;;;;;21.25;10.98;;;;;;;4.45;100.00;100881.72;1598628;89;21244;-74
2022/10/18 00:36:34;;;;;;;;;;;;;;;4.43;100.00;100879.77;1601266;89;20949;-76
2022/10/18 00:39:02;;;;;;;19.65;11.05;;;;;;;4.40;100.00;100874.00;1598767;89;20111;-77
2022/10/18 00:41:31;;;;;;;23.92;12.15;;;;;;;4.36;100.00;100868.22;1598640;89;21030;-75
2022/10/18 00:44:06;;;;;;;26.30;10.72;;;;;;;4.36;100.00;100859.23;1598727;88;20970;-77
2022/10/18 00:46:36;;;;;;;25.00;12.00;;;;;;;4.41;100.00;100857.97;1577623;89;21250;-76
2022/10/18 00:49:19;;;;;;;25.55;11.70;;;;;;;4.51;100.00;100861.71;1598919;89;21067;-77
2022/10/18 00:52:03;;;;;;;21.23;11.53;;;;;;;4.56;100.00;100871.86;1598385;89;20988;-77
2022/10/18 00:54:34;;;;;;;18.73;10.48;;;;;;;4.53;100.00;100865.55;1598733;89;21015;-77
2022/10/18 00:57:01;;;;;;;19.75;10.13;;;;;;;4.53;100.00;100865.55;1598874;89;21018;-77
2022/10/18 00:59:27;;;;;;;19.27;10.93;;;;;;;4.52;100.00;100863.36;1614611;88;21584;-75
2022/10/18 01:01:56;;;;;;;19.40;10.63;;;;;;;4.49;100.00;100863.84;1556268;91;20958;-76
2022/10/18 01:04:22;;;;;;;21.70;11.60;;;;;;;4.45;100.00;100857.78;1600969;89;21012;-77
2022/10/18 01:07:06;;;;;;;28.25;10.90;;;;;;;4.43;100.00;100862.09;1557192;91;20918;-77
2022/10/18 01:10:03;;;;;;;19.75;10.70;;;;;;;4.36;100.00;100866.03;1601193;89;20932;-77
2022/10/18 01:12:58;;;;;;;18.73;10.82;;;;;;;4.33;100.00;100853.75;1558736;91;21201;-77
2022/10/18 01:15:51;;;;;;;21.02;11.10;;;;;;;4.33;100.00;100853.75;1580781;89;20913;-76
2022/10/18 01:18:30;;;;;;;19.92;10.38;;;;;;;4.28;100.00;100846.85;1550097;92;20982;-76
2022/10/18 01:21:11;;;;;;;21.25;10.88;;;;;;;4.26;100.00;100842.19;1550096;92;20964;-76
2022/10/18 01:24:07;;;;;;;22.27;10.20;;;;;;;4.22;100.00;100850.00;1586541;87;21050;-77
2022/10/18 01:27:00;;;;;;;23.85;9.90;;;;;;;4.21;100.00;100848.89;1562464;91;21279;-75
2022/10/18 01:29:59;;;;;;;18.37;10.00;;;;;;;4.16;100.00;100848.79;1578099;90;20927;-76
2022/10/18 01:32:34;;;;;;;21.30;10.10;;;;;;;4.14;100.00;100845.48;1546089;92;21031;-75
2022/10/18 01:35:07;;;;;;;19.73;10.00;;;;;;;4.10;100.00;100840.24;1586311;90;20991;-75
2022/10/18 01:37:34;;;;;;;21.80;10.32;;;;;;;4.07;100.00;100834.75;1555047;92;21097;-75
2022/10/18 01:40:02;;;;;;;25.37;10.70;;;;;;;4.03;100.00;100830.08;1555305;92;21144;-75
2022/10/18 01:42:29;;;;;;;18.73;10.00;;;;;;;4.06;100.00;100831.75;1554820;91;21573;-75
2022/10/18 01:44:56;;;;;;;19.90;10.00;;;;;;;4.06;100.00;100830.39;1562230;90;20951;-75
2022/10/18 01:47:22;;;;;;;22.15;11.05;;;;;;;4.06;100.00;100829.56;1555058;92;20995;-76
2022/10/18 01:49:49;;;;;;;27.37;11.63;;;;;;;4.07;100.00;100829.85;1582292;90;20984;-75
2022/10/18 01:52:15;;;;;;;22.77;11.15;;;;;;;4.16;100.00;100820.25;1554907;92;21821;-74
2022/10/18 01:54:47;;;;;;;23.40;10.98;;;;;;;4.16;100.00;100820.25;1582025;90;21538;-75
2022/10/18 01:57:31;;;;;;;22.37;10.53;;;;;;;4.22;100.00;100819.28;1555187;92;20988;-75
2022/10/18 02:00:06;;;;;;;23.75;11.22;;;;;;;4.26;100.00;100822.63;1586994;88;20951;-75
2022/10/18 02:03:04;;;;;;;19.25;9.85;;;;;;;4.29;100.00;100822.15;1607830;89;20936;-75
2022/10/18 02:05:47;;;;;;;19.50;10.18;;;;;;;4.30;100.00;100821.08;1579781;90;21168;-75
2022/10/18 02:08:34;;;;;;;21.50;10.40;;;;;;;4.34;100.00;100827.39;1593639;89;21470;-75
2022/10/18 02:11:11;;;;;;;20.85;10.78;;;;;;;4.31;100.00;100814.57;1557603;91;20987;-75
2022/10/18 02:13:55;;;;;;;21.33;9.65;;;;;;;4.30;100.00;100814.28;1601376;88;21832;-74
2022/10/18 02:16:29;;;;;;;21.80;10.08;;;;;;;4.30;100.00;100814.28;1579720;90;20991;-74
2022/10/18 02:19:03;;;;;;;22.05;11.30;;;;;;;4.28;100.00;100810.98;1593928;88;21150;-74
2022/10/18 02:21:30;;;;;;;15.48;9.23;;;;;;;4.26;100.00;100801.42;1586720;90;21019;-75
2022/10/18 02:23:57;;;;;;;22.22;9.70;;;;;;;4.26;100.00;100801.42;1579356;91;20939;-75
2022/10/18 02:26:24;;;;;;;20.10;9.65;;;;;;;4.23;100.00;100795.11;1579525;91;21585;-75
2022/10/18 02:28:51;;;;;;;18.67;9.55;;;;;;;4.23;100.00;100796.47;1577997;90;21555;-76
2022/10/18 02:31:34;;;;;;;18.52;9.70;;;;;;;4.34;100.00;100801.03;1577512;91;21272;-76
2022/10/18 02:34:18;;;;;;;28.83;10.00;;;;;;;4.34;100.00;100801.03;1592347;88;21004;-75
2022/10/18 02:36:57;;;;;;;19.05;9.05;;;;;;;4.38;100.00;100792.67;1598971;89;21042;-74
2022/10/18 02:39:31;;;;;;;19.90;9.53;;;;;;;4.42;100.00;100789.75;1577892;91;20960;-73
2022/10/18 02:41:58;;;;;;;18.50;9.35;;;;;;;4.38;100.00;100789.95;1577885;91;20984;-75
2022/10/18 02:44:25;;;;;;;22.75;9.03;;;;;;;4.30;100.00;100780.30;1578140;91;21848;-75
2022/10/18 02:46:53;;;;;;;21.52;10.80;;;;;;;4.33;100.00;100771.37;1578037;91;21607;-76
2022/10/18 02:49:19;;;;;;;18.95;10.15;;;;;;;4.33;100.00;100771.37;1587527;88;21094;-76
2022/10/18 02:51:46;;;;;;;19.25;9.08;;;;;;;4.38;100.00;100773.64;1587093;89;21003;-76
2022/10/18 02:54:12;;;;;;;19.55;9.38;;;;;;;4.42;100.00;100769.36;1585074;89;21031;-78
2022/10/18 02:56:39;;;;;;;16.70;9.18;;;;;;;4.59;100.00;100763.41;1593615;89;21194;-75
2022/10/18 02:59:07;;;;;;;18.40;9.05;;;;;;;4.70;100.00;100759.47;1604518;89;20889;-75
2022/10/18 03:01:34;;;;;;;19.75;9.73;;;;;;;4.70;100.00;100759.47;1606124;89;21558;-74
2022/10/18 03:04:02;;;;;;;22.07;9.30;;;;;;;4.94;99.32;100750.05;1606391;89;20949;-75
2022/10/18 03:06:29;;;;;;;19.75;9.00;;;;;;;4.94;99.32;100750.05;1606359;89;21463;-75
2022/10/18 03:08:55;;;;;;;25.37;8.83;;;;;;;5.06;98.37;100744.52;1606356;89;21203;-76
2022/10/18 03:11:22;;;;;;;20.88;8.95;;;;;;;5.21;97.16;100737.89;1606251;89;21530;-77
2022/10/18 03:13:50;;;;;;;17.65;8.58;;;;;;;5.37;95.91;100744.38;1606473;89;21554;-74
2022/10/18 03:16:17;;;;;;;19.12;8.65;;;;;;;5.48;94.95;100746.16;1606389;89;21593;-73
2022/10/18 03:18:44;;;;;;;17.65;8.50;;;;;;;5.64;92.53;100744.73;1606306;89;20976;-80
2022/10/18 03:21:11;;;;;;;17.85;8.10;;;;;;;5.64;92.53;100744.73;1606212;89;21594;-76
2022/10/18 03:23:38;;;;;;;19.07;8.48;;;;;;;5.71;91.98;100739.09;1605930;87;21040;-78
2022/10/18 03:26:06;;;;;;;17.52;7.78;;;;;;;5.76;91.23;100736.97;1606165;87;21482;-76
2022/10/18 03:28:32;;;;;;;23.85;8.80;;;;;;;5.79;90.52;100733.16;1555025;92;21084;-75
2022/10/18 03:31:01;;;;;;;21.27;8.03;;;;;;;5.82;89.85;100728.56;1575263;90;21091;-73
2022/10/18 03:33:28;;;;;;;20.60;8.38;;;;;;;5.83;89.80;100723.94;1572050;89;21131;-73
2022/10/18 03:35:55;;;;;;;18.77;8.88;;;;;;;5.90;91.93;100728.69;1582710;88;20988;-75
2022/10/18 03:38:22;;;;;;;14.90;8.38;;;;;;;5.95;90.42;100724.11;1567693;91;20984;-73
2022/10/18 03:40:49;;;;;;;16.20;8.13;;;;;;;5.93;89.50;100722.72;1573840;90;20980;-74
2022/10/18 03:43:15;;;;;;;17.42;8.80;;;;;;;5.88;89.15;100722.63;1549086;91;20985;-73
2022/10/18 03:45:42;;;;;;;22.95;9.30;;;;;;;5.82;89.64;100721.75;1570718;91;21163;-75
2022/10/18 03:48:09;;;;;;;19.10;8.90;;;;;;;5.78;89.35;100717.07;1571102;90;20969;-72
2022/10/18 03:50:36;;;;;;;20.88;9.98;;;;;;;5.61;89.53;100718.54;1558273;89;21580;-72
2022/10/18 03:53:02;;;;;;;20.52;8.55;;;;;;;5.61;89.53;100718.54;1597462;89;20980;-71
2022/10/18 03:55:30;;;;;;;26.30;10.10;;;;;;;5.54;89.47;100720.63;1599620;89;21047;-72
2022/10/18 03:57:57;;;;;;;19.77;9.68;;;;;;;5.49;89.49;100716.48;1574646;89;21626;-72
2022/10/18 04:00:24;;;;;;;21.05;10.10;;;;;;;5.43;89.62;100721.05;1591306;89;20948;-72
2022/10/18 04:02:51;;;;;;;24.90;10.90;;;;;;;5.37;90.05;100713.06;1598201;89;21024;-74
2022/10/18 04:05:17;;;;;;;20.90;11.12;;;;;;;5.34;89.95;100712.20;1598360;89;22149;-74
2022/10/18 04:07:43;;;;;;;22.40;10.95;;;;;;;5.30;90.07;100714.07;1604453;88;21058;-69
2022/10/18 04:10:10;;;;;;;25.37;11.57;;;;;;;5.29;90.38;100711.06;1591113;89;21170;-78
2022/10/18 04:12:38;;;;;;;21.57;11.03;;;;;;;5.30;90.07;100707.27;1556749;90;21059;-74
2022/10/18 04:15:07;;;;;;;19.85;10.68;;;;;;;5.29;89.97;100712.42;1586207;89;20931;-75
2022/10/18 04:17:35;;;;;;;22.32;11.30;;;;;;;5.28;90.06;100708.59;1585370;90;21472;-75
2022/10/18 04:20:03;;;;;;;23.32;10.70;;;;;;;5.23;90.46;100700.36;1565645;90;21595;-71
2022/10/18 04:22:30;;;;;;;20.43;9.38;;;;;;;5.09;90.92;100703.19;1547266;92;21689;-72
2022/10/18 04:24:57;;;;;;;26.00;12.13;;;;;;;5.09;90.92;100703.19;1556847;92;21660;-73
2022/10/18 04:27:24;;;;;;;20.90;11.12;;;;;;;5.04;91.04;100699.86;1546561;92;20984;-73
2022/10/18 04:29:51;;;;;;;23.42;11.22;;;;;;;5.00;91.21;100702.80;1583605;90;21023;-71
2022/10/18 04:32:18;;;;;;;19.92;11.18;;;;;;;4.93;91.40;100700.25;1555015;92;20988;-72
2022/10/18 04:34:44;;;;;;;21.33;11.20;;;;;;;4.78;92.04;100689.14;1598423;87;21538;-70
2022/10/18 04:37:11;;;;;;;32.30;11.80;;;;;;;4.78;92.04;100689.14;1620392;87;21135;-72
2022/10/18 04:39:38;;;;;;;23.42;11.22;;;;;;;4.71;92.55;100691.21;1640846;87;20951;-72
2022/10/18 04:42:04;;;;;;;25.27;11.20;;;;;;;4.64;93.00;100688.66;1640923;86;21007;-73
2022/10/18 04:44:31;;;;;;;24.45;10.68;;;;;;;4.58;93.49;100696.48;1612648;87;21002;-74
2022/10/18 04:46:58;;;;;;;28.23;11.25;;;;;;;4.49;94.13;100684.37;1639824;87;21217;-71
2022/10/18 04:49:24;;;;;;;34.67;12.25;;;;;;;4.42;95.16;100687.80;1641036;87;21525;-73
2022/10/18 04:51:51;;;;;;;26.77;10.95;;;;;;;4.40;95.84;100683.14;1640855;87;21007;-73
2022/10/18 04:54:20;;;;;;;23.85;11.40;;;;;;;4.44;96.41;100682.94;1621332;87;21198;-73
2022/10/18 04:56:46;;;;;;;17.75;10.78;;;;;;;4.53;96.46;100690.97;1605345;89;21518;-76
2022/10/18 04:59:16;;;;;;;23.60;10.90;;;;;;;4.67;96.15;100697.40;1604241;89;21499;-75
2022/10/18 05:01:46;;;;;;;21.35;11.15;;;;;;;4.74;95.73;100692.08;1589004;88;21000;-73
2022/10/18 05:04:15;;;;;;;19.92;9.40;;;;;;;4.87;95.32;100684.92;1587653;90;21041;-75
2022/10/18 05:06:42;;;;;;;21.37;8.85;;;;;;;4.97;94.88;100682.89;1584611;89;21112;-72
2022/10/18 05:09:14;;;;;;;25.25;9.88;;;;;;;5.09;94.35;100681.41;1586082;89;21120;-73
2022/10/18 05:11:46;;;;;;;18.70;9.25;;;;;;;5.23;93.64;100680.77;1586522;89;21153;-76
2022/10/18 05:14:17;;;;;;;22.25;9.58;;;;;;;5.39;92.81;100666.80;1582966;89;21073;-75
2022/10/18 05:16:47;;;;;;;18.40;8.60;;;;;;;5.54;91.64;100666.16;1583213;90;20905;-75
2022/10/18 05:19:17;;;;;;;19.80;9.45;;;;;;;5.68;90.55;100663.32;1586867;90;21597;-76
2022/10/18 05:21:45;;;;;;;19.32;8.65;;;;;;;5.80;89.50;100661.23;1580767;90;21006;-75
2022/10/18 05:24:14;;;;;;;22.00;8.83;;;;;;;5.93;88.69;100673.12;1586022;89;21154;-74
2022/10/18 05:26:41;;;;;;;14.23;8.23;;;;;;;6.06;87.91;100673.78;1586764;89;21132;-74
2022/10/18 05:29:07;;;;;;;15.05;7.67;;;;;;;6.16;87.17;100676.61;1586154;90;21483;-72
2022/10/18 05:31:34;;;;;;;17.85;7.78;;;;;;;6.26;86.49;100674.80;1582354;89;21084;-72
2022/10/18 05:34:01;;;;;;;17.27;7.25;;;;;;;6.37;85.76;100666.67;1586828;90;21064;-72
2022/10/18 05:36:28;;;;;;;19.27;8.18;;;;;;;6.47;85.15;100665.39;1586864;90;21587;-72
2022/10/18 05:38:55;;;;;;;17.57;7.40;;;;;;;6.57;84.70;100664.09;1586818;90;21029;-73
2022/10/18 05:41:22;;;;;;;21.00;8.30;;;;;;;6.67;84.19;100668.27;1588156;90;20996;-73
2022/10/18 05:43:49;;;;;;;19.95;8.63;;;;;;;6.75;83.13;100667.77;1587246;89;21045;-74
2022/10/18 05:46:16;;;;;;;19.55;7.75;;;;;;;6.84;82.92;100664.83;1586810;90;21091;-74
2022/10/18 05:48:43;;;;;;;24.67;8.30;;;;;;;6.94;82.32;100674.95;1587698;90;21128;-73
2022/10/18 05:51:11;;;;;;;17.82;7.90;;;;;;;7.04;82.35;100664.64;1586229;90;21029;-72
2022/10/18 05:53:39;;;;;;;22.58;7.90;;;;;;;7.13;81.82;100672.06;1587494;90;21102;-74
2022/10/18 05:56:06;;;;;;;13.18;7.30;;;;;;;7.23;81.39;100672.11;1589350;89;21963;-73
2022/10/18 05:58:34;;;;;;;17.45;7.78;;;;;;;7.36;80.78;100671.34;1591979;88;21614;-73
2022/10/18 06:01:01;;;;;;;15.95;8.03;;;;;;;7.47;80.23;100661.56;1578154;89;21262;-74
2022/10/18 06:03:29;;;;;;;20.17;8.10;;;;;;;7.58;79.79;100663.20;1595211;89;21048;-72
2022/10/18 06:06:06;;;;;;;17.82;7.75;;;;;;;7.72;79.47;100663.52;1580447;89;21543;-75
2022/10/18 06:08:33;;;;;;;16.73;7.28;;;;;;;7.86;79.06;100665.19;1594962;89;21135;-72
2022/10/18 06:11:10;;;;;;;12.53;7.00;;;;;;;8.00;78.31;100662.21;1581011;89;21083;-78
2022/10/18 06:13:46;;;;;;;17.32;7.00;;;;;;;8.14;77.82;100666.03;1569488;89;21141;-71
2022/10/18 06:16:14;;;;;;;20.65;6.72;;;;;;;8.27;77.48;100669.59;1592818;89;21087;-71
2022/10/18 06:18:41;;;;;;;19.25;7.00;;;;;;;8.42;77.36;100663.34;1567681;91;21024;-72
2022/10/18 06:21:07;;;;;;;13.98;6.67;;;;;;;8.56;76.87;100664.42;1595020;90;21048;-73
2022/10/18 06:23:35;;;;;;;17.02;7.33;;;;;;;8.73;76.28;100664.65;1594997;89;21080;-72
2022/10/18 06:26:06;;;;;;;23.65;6.83;;;;;;;8.88;75.76;100660.52;1584998;89;21116;-73
2022/10/18 06:28:34;;;;;;;16.70;6.60;;;;;;;9.06;75.44;100659.11;1596552;89;21064;-74
2022/10/18 06:31:01;;;;;;;15.78;6.28;;;;;;;9.30;74.42;100652.41;1576971;89;21131;-73
2022/10/18 06:33:30;;;;;;;17.40;6.35;;;;;;;9.82;72.56;100653.25;1589175;89;21084;-73
2022/10/18 06:36:02;;;;;;;13.08;6.15;;;;;;;10.52;71.45;100657.37;1597302;88;21562;-72
2022/10/18 06:38:29;;;;;;;15.20;6.00;;;;;;;11.27;68.17;100653.27;1597479;89;21221;-75
2022/10/18 06:40:56;;;;;;;11.73;5.70;;;;;;;11.95;64.89;100652.36;1590605;89;21056;-73
2022/10/18 06:43:23;;;;;;;14.65;6.20;;;;;;;12.55;63.35;100657.98;1575597;89;21510;-76
2022/10/18 06:45:51;;;;;;;12.18;5.95;;;;;;;13.10;60.90;100651.16;1582279;89;21139;-74
2022/10/18 06:48:18;;;;;;;12.80;6.03;;;;;;;13.57;58.83;100649.92;1595644;89;21127;-75
2022/10/18 06:50:56;;;;;;;12.90;5.67;;;;;;;13.97;57.12;100650.12;1584598;89;21888;-71
2022/10/18 06:53:26;;;;;;;12.33;6.75;;;;;;;14.29;55.46;100649.90;1562502;91;21082;-73
2022/10/18 06:56:11;;;;;;;13.00;5.95;;;;;;;14.64;53.28;100641.28;1592449;89;21589;-73
2022/10/18 06:58:39;;;;;;;8.93;5.03;;;;;;;14.90;52.94;100634.52;1597597;88;20991;-81
2022/10/18 07:01:09;;;;;;;13.03;4.53;;;;;;;15.10;52.10;100643.60;1580562;88;21090;-71
2022/10/18 07:03:35;;;;;;;10.65;4.50;;;;;;;15.30;50.69;100646.93;1595262;89;21490;-73
2022/10/18 07:06:03;;;;;;;11.20;4.87;;;;;;;15.47;50.71;100636.73;1572519;91;21378;-73
2022/10/18 07:08:30;;;;;;;9.88;4.92;;;;;;;15.72;49.51;100634.34;1607790;89;21114;-72
2022/10/18 07:10:58;;;;;;;15.03;5.10;;;;;;;15.95;49.77;100625.33;1573029;91;21610;-72
2022/10/18 07:13:29;;;;;;;11.70;4.00;;;;;;;16.24;49.28;100618.52;1559459;91;21066;-71
2022/10/18 07:16:06;;;;;;;19.80;4.45;;;;;;;16.54;48.30;100618.64;1563319;91;21208;-72
2022/10/18 07:18:36;;;;;;;8.80;4.87;;;;;;;16.78;47.75;100622.50;1572494;91;21626;-73
2022/10/18 07:21:04;;;;;;;11.28;5.00;;;;;;;17.07;46.23;100614.80;1597059;89;21079;-71
2022/10/18 07:23:40;;;;;;;9.80;5.17;;;;;;;17.22;45.91;100616.78;1582235;89;21616;-71
2022/10/18 07:26:23;;;;;;;9.13;4.95;;;;;;;17.34;45.28;100607.13;1556870;91;21384;-73
2022/10/18 07:28:54;;;;;;;12.15;4.37;;;;;;;17.47;45.57;100598.56;1550244;92;21578;-73
2022/10/18 07:31:21;;;;;;;12.65;4.60;;;;;;;17.68;44.94;100599.20;1576597;91;21134;-71
2022/10/18 07:33:48;;;;;;;9.25;4.42;;;;;;;17.91;44.83;100599.67;1550635;91;21151;-71
2022/10/18 07:36:14;;;;;;;9.93;4.55;;;;;;;18.14;44.22;100593.97;1585638;89;21677;-76
2022/10/18 07:38:43;;;;;;;6.90;4.53;;;;;;;18.40;43.32;100595.11;1567083;89;21615;-78
2022/10/18 07:41:11;;;;;;;16.42;4.40;;;;;;;18.49;41.98;100595.80;1567983;89;21987;-76
2022/10/18 07:43:47;;;;;;;13.68;4.78;;;;;;;18.44;42.44;100590.49;1572848;89;21098;-74
2022/10/18 07:46:15;;;;;;;12.00;4.17;;;;;;;18.55;42.33;100588.88;1571949;90;21082;-76
2022/10/18 07:48:42;;;;;;;9.13;4.03;;;;;;;18.74;41.85;100591.95;1571574;89;21071;-74
2022/10/18 07:51:08;;;;;;;11.93;4.47;;;;;;;18.86;41.13;100581.43;1572579;89;21345;-76
2022/10/18 07:53:35;;;;;;;11.65;5.00;;;;;;;18.99;40.81;100585.03;1574524;89;21359;-78
2022/10/18 07:56:04;;;;;;;9.30;4.00;;;;;;;19.04;40.54;100575.06;1574609;90;21328;-72
2022/10/18 07:58:32;;;;;;;11.08;4.28;;;;;;;19.12;40.31;100579.09;1574567;89;21018;-77
2022/10/18 08:01:04;;;;;;;11.93;4.22;;;;;;;19.26;40.36;100574.57;1574979;89;21118;-72
2022/10/18 08:03:33;;;;;;;11.78;4.50;;;;;;;19.46;39.70;100571.42;1578203;90;21639;-79
2022/10/18 08:06:01;;;;;;;11.97;5.28;;;;;;;19.56;39.14;100577.13;1577713;90;22745;-71
2022/10/18 08:08:32;;;;;;;10.90;5.22;;;;;;;19.65;39.56;100570.22;1622792;88;21354;-71
2022/10/18 08:11:04;;;;;;;17.32;7.85;;;;;;;19.87;39.11;100568.08;1610750;88;21566;-74
2022/10/18 08:13:34;;;;;;;18.52;7.00;;;;;;;20.13;38.81;100563.45;1594828;89;21047;-72
2022/10/18 08:16:08;;;;;;;10.85;4.90;;;;;;;20.44;38.12;100557.95;1584889;89;21019;-75
2022/10/18 08:18:37;;;;;;;12.27;4.70;;;;;;;20.71;37.58;100559.88;1612194;89;21118;-78
2022/10/18 08:21:08;;;;;;;8.75;4.12;;;;;;;20.96;36.66;100563.27;1612361;88;21752;-77
2022/10/18 08:23:38;;;;;;;9.08;4.83;;;;;;;21.10;35.41;100553.03;1586076;90;21015;-75
2022/10/18 08:26:10;;;;;;;14.33;5.17;;;;;;;21.14;35.15;100558.70;1563171;91;21560;-75
2022/10/18 08:28:40;;;;;;;10.65;5.08;;;;;;;21.24;35.95;100549.80;1556279;90;21106;-74
2022/10/18 08:31:12;;;;;;;7.53;3.77;;;;;;;21.57;35.58;100553.53;1574844;89;21833;-73
2022/10/18 08:33:40;;;;;;;17.62;4.37;;;;;;;21.80;34.80;100543.25;1575024;91;21071;-75
2022/10/18 08:36:10;;;;;;;6.70;3.92;;;;;;;21.94;34.08;100541.34;1574841;91;21055;-76
2022/10/18 08:38:41;;;;;;;12.07;4.28;;;;;;;22.02;33.45;100537.52;1575860;91;21050;-74
2022/10/18 08:41:40;;;;;;;5.85;3.40;;;;;;;22.02;33.32;100534.13;1597825;89;21193;-76
2022/10/18 08:44:24;;;;;;;12.75;4.62;;;;;;;22.02;33.48;100539.73;1588880;89;21300;-75
2022/10/18 08:47:00;;;;;;;8.33;4.63;;;;;;;21.99;32.85;100533.44;1571388;90;20960;-73
2022/10/18 08:49:57;;;;;;;10.85;4.25;;;;;;;21.79;33.30;100531.86;1550144;92;20905;-75
2022/10/18 08:52:39;;;;;;;8.58;4.20;;;;;;;21.93;32.86;100525.16;1568214;90;21144;-76
2022/10/18 08:55:13;;;;;;;13.65;4.50;;;;;;;22.00;32.50;100521.08;1551802;91;21083;-74
2022/10/18 08:57:39;;;;;;;9.13;4.25;;;;;;;22.15;31.69;100520.00;1573511;91;21190;-77
2022/10/18 09:00:18;;;;;;;7.05;4.10;;;;;;;22.21;31.19;100519.33;1598631;89;21020;-74
2022/10/18 09:03:17;;;;;;;10.13;3.90;;;;;;;22.05;31.86;100515.22;1593061;89;21071;-74
2022/10/18 09:06:01;;;;;;;9.03;3.50;;;;;;;22.08;32.48;100513.67;1593616;88;21035;-70
2022/10/18 09:08:58;;;;;;;7.62;4.05;;;;;;;22.32;31.66;100506.34;1557390;92;21134;-74
2022/10/18 09:11:59;;;;;;;9.75;3.95;;;;;;;22.45;30.87;100505.58;1571813;89;21557;-75
2022/10/18 09:15:00;;;;;;;12.55;3.92;;;;;;;22.40;30.84;100500.30;1571827;90;21050;-76
2022/10/18 09:17:51;;;;;;;9.70;4.28;;;;;;;22.47;31.14;100499.61;1587551;89;21016;-76
2022/10/18 09:20:27;;;;;;;11.25;3.85;;;;;;;22.63;30.43;100497.47;1550421;91;21038;-74
2022/10/18 09:23:10;;;;;;;11.40;3.80;;;;;;;22.67;30.51;100488.55;1596776;89;27098;-73
2022/10/18 09:25:47;;;;;;;10.28;3.30;;;;;;;22.69;30.53;100484.78;1559332;91;21204;-75
2022/10/18 09:28:47;;;;;;;10.40;4.62;;;;;;;22.68;30.68;100479.77;1594334;89;21064;-72
2022/10/18 09:31:32;;;;;;;5.30;3.47;;;;;;;22.72;30.73;100482.62;1593620;89;21078;-73
2022/10/18 09:34:37;;;;;;;8.98;3.80;;;;;;;22.75;29.95;100474.88;1604969;89;21682;-72
2022/10/18 09:37:12;;;;;;;5.37;3.80;;;;;;;22.83;30.41;100470.23;1570616;91;21045;-73
2022/10/18 09:39:41;;;;;;;8.03;3.80;;;;;;;22.95;30.09;100463.03;1571176;91;22384;-73
2022/10/18 09:42:33;;;;;;;7.87;4.10;;;;;;;22.99;30.39;100464.70;1577177;89;21142;-73
2022/10/18 09:45:16;;;;;;;8.95;4.05;;;;;;;23.16;30.34;100456.91;1579824;88;21713;-74
2022/10/18 09:47:51;;;;;;;6.97;3.72;;;;;;;23.41;29.75;100437.64;1569883;90;21090;-73
2022/10/18 09:50:35;;;;;;;7.67;3.92;;;;;;;23.47;29.14;100434.70;1566833;91;21635;-77
2022/10/18 09:53:11;;;;;;;9.33;3.50;;;;;;;23.44;29.40;100431.27;1545782;89;21123;-79
2022/10/18 09:56:06;;;;;;;7.75;3.90;;;;;;;23.47;29.60;100432.72;1606382;89;21035;-79
2022/10/18 09:58:47;;;;;;;8.78;4.10;;;;;;;23.58;29.47;100428.67;1602354;88;21138;-75
2022/10/18 10:01:27;;;;;;;10.65;3.77;;;;;;;23.78;29.05;100418.87;1599321;89;21027;-75
2022/10/18 10:04:02;;;;;;;5.85;3.40;;;;;;;23.88;28.97;100417.38;1604015;89;21608;-74
2022/10/18 10:06:33;;;;;;;8.10;3.62;;;;;;;23.99;29.17;100409.87;1595363;89;21199;-76
2022/10/18 10:09:17;;;;;;;8.73;3.40;;;;;;;24.16;28.24;100408.44;1601681;89;21046;-77
2022/10/18 10:11:50;;;;;;;5.10;3.52;;;;;;;24.14;28.15;100405.22;1605252;89;21063;-76
2022/10/18 10:14:22;;;;;;;9.13;4.12;;;;;;;24.00;28.12;100398.28;1605110;89;21035;-76
2022/10/18 10:17:05;;;;;;;6.28;3.83;;;;;;;23.98;28.41;100391.44;1604901;89;21018;-76
2022/10/18 10:20:00;;;;;;;11.05;4.28;;;;;;;23.94;27.95;100399.81;1604860;89;22114;-76
2022/10/18 10:22:40;;;;;;;8.65;3.83;;;;;;;23.81;28.25;100388.66;1605127;89;21068;-76
2022/10/18 10:25:20;;;;;;;8.78;4.10;;;;;;;23.86;28.52;100391.12;1605095;89;21059;-76
2022/10/18 10:27:52;;;;;;;10.43;3.65;;;;;;;23.98;28.33;100383.02;1604844;89;21071;-76
2022/10/18 10:30:29;;;;;;;10.60;3.87;;;;;;;24.11;27.73;100377.34;1584392;89;20980;-76
2022/10/18 10:32:58;;;;;;;10.53;3.92;;;;;;;24.24;27.31;100366.63;1604200;89;22268;-75
2022/10/18 10:35:34;;;;;;;9.70;3.62;;;;;;;24.17;27.20;100361.77;1604436;89;21039;-75
2022/10/18 10:38:05;;;;;;;7.00;3.95;;;;;;;24.12;27.20;100362.13;1602529;89;21577;-75
2022/10/18 10:40:36;;;;;;;7.80;3.83;;;;;;;24.18;27.34;100356.37;1602984;89;21087;-75
2022/10/18 10:43:10;;;;;;;14.47;4.00;;;;;;;24.43;27.01;100352.95;1603449;88;21065;-74
2022/10/18 10:45:41;;;;;;;9.08;3.85;;;;;;;24.52;26.40;100357.03;1603941;89;21175;-75
2022/10/18 10:48:17;;;;;;;8.98;4.72;;;;;;;24.59;26.25;100350.06;1603413;89;21031;-76
2022/10/18 10:51:04;;;;;;;12.90;4.17;;;;;;;24.53;25.94;100338.19;1581894;88;20967;-77
2022/10/18 10:53:51;;;;;;;11.25;4.47;;;;;;;24.50;26.02;100343.98;1568928;90;21134;-76
2022/10/18 10:56:26;;;;;;;10.60;5.53;;;;;;;24.56;26.01;100337.41;1584515;90;21145;-76
2022/10/18 10:59:13;;;;;;;13.30;5.58;;;;;;;24.66;26.07;100335.27;1559310;90;21636;-76
2022/10/18 11:01:40;;;;;;;7.53;3.75;;;;;;;24.83;25.59;100323.94;1559082;90;21105;-76
2022/10/18 11:04:30;;;;;;;10.90;5.62;;;;;;;24.94;25.35;100319.95;1587325;90;21018;-76
2022/10/18 11:07:09;;;;;;;10.82;4.55;;;;;;;25.00;25.94;100323.22;1564219;90;21024;-73
2022/10/18 11:10:13;;;;;;;7.37;4.22;;;;;;;25.19;24.91;100315.07;1584122;90;21078;-80
2022/10/18 11:12:46;;;;;;;8.75;3.33;;;;;;;25.40;25.36;100319.95;1554147;92;21270;-73
2022/10/18 11:15:30;;;;;;;8.93;3.25;;;;;;;25.74;23.72;100311.39;1550390;92;21064;-74
2022/10/18 11:18:16;;;;;;;11.30;3.98;;;;;;;25.75;24.34;100303.16;1548790;92;21098;-83
2022/10/18 11:21:00;;;;;;;20.08;5.50;;;;;;;25.76;23.64;100310.39;1548762;92;21588;-77
2022/10/18 11:23:32;;;;;;;5.97;3.65;;;;;;;25.94;23.06;100300.56;1548748;92;21154;-77
2022/10/18 11:26:32;;;;;;;6.80;2.87;;;;;;;25.95;22.37;100293.73;1549112;92;21158;-82
2022/10/18 11:29:29;;;;;;;6.47;2.60;;;;;;;25.82;22.35;100293.33;1541386;92;21161;-77
2022/10/18 11:32:17;;;;;;;10.05;3.08;;;;;;;25.60;22.69;100302.30;1548664;92;21083;-73
2022/10/18 11:35:11;;;;;;;10.80;4.00;;;;;;;25.48;22.72;100292.04;1548681;92;21064;-74
2022/10/18 11:38:08;;;;;;;8.10;2.67;;;;;;;25.69;22.84;100294.92;1548421;92;21112;-71
2022/10/18 11:40:47;;;;;;;12.47;3.05;;;;;;;26.09;22.38;100286.67;1548817;92;21224;-74
2022/10/18 11:43:19;;;;;;;8.88;2.77;;;;;;;26.22;21.36;100285.05;1548476;91;21125;-71
2022/10/18 11:46:26;;;;;;;14.00;3.20;;;;;;;25.99;21.63;100281.88;1548627;92;21093;-74
2022/10/18 11:49:20;;;;;;;6.62;2.58;;;;;;;25.83;21.72;100275.25;1548834;92;21173;-73